sensor_id;sensor_type;location;lat;lon;timestamp;pressure;altitude;pressure_sealevel;temperature
69857;BMP280;57147;53.582;10.112;2023-07-29T00:03:44;100202.53;;;18.80
69857;BMP280;57147;53.582;10.112;2023-07-29T00:08:48;100184.41;;;18.73
69857;BMP280;57147;53.582;10.112;2023-07-29T00:13:49;100188.16;;;18.69
69857;BMP280;57147;53.582;10.112;2023-07-29T00:18:49;100171.25;;;18.65
69857;BMP280;57147;53.582;10.112;2023-07-29T00:23:52;100165.75;;;18.58
69857;BMP280;57147;53.582;10.112;2023-07-29T00:28:53;100181.78;;;18.51
69857;BMP280;57147;53.582;10.112;2023-07-29T00:33:53;100141.75;;;18.45
69857;BMP280;57147;53.582;10.112;2023-07-29T00:38:57;100129.44;;;18.44
69857;BMP280;57147;53.582;10.112;2023-07-29T00:43:57;100114.78;;;18.38
69857;BMP280;57147;53.582;10.112;2023-07-29T00:48:58;100090.66;;;18.19
69857;BMP280;57147;53.582;10.112;2023-07-29T00:54:02;100112.69;;;18.28
69857;BMP280;57147;53.582;10.112;2023-07-29T00:59:03;100090.38;;;18.24
69857;BMP280;57147;53.582;10.112;2023-07-29T01:04:04;100078.78;;;18.20
69857;BMP280;57147;53.582;10.112;2023-07-29T01:09:11;100033.63;;;18.03
69857;BMP280;57147;53.582;10.112;2023-07-29T01:14:21;100038.97;;;18.26
69857;BMP280;57147;53.582;10.112;2023-07-29T01:19:43;99962.28;;;18.06
69857;BMP280;57147;53.582;10.112;2023-07-29T01:24:51;100019.16;;;18.37
69857;BMP280;57147;53.582;10.112;2023-07-29T01:29:52;99957.31;;;18.34
69857;BMP280;57147;53.582;10.112;2023-07-29T01:34:56;99919.72;;;18.37
69857;BMP280;57147;53.582;10.112;2023-07-29T01:40:01;99934.78;;;18.45
69857;BMP280;57147;53.582;10.112;2023-07-29T01:45:02;99954.41;;;18.50
69857;BMP280;57147;53.582;10.112;2023-07-29T01:50:05;99948.25;;;18.49
69857;BMP280;57147;53.582;10.112;2023-07-29T01:55:08;99905.47;;;18.33
69857;BMP280;57147;53.582;10.112;2023-07-29T02:00:10;99907.72;;;18.61
69857;BMP280;57147;53.582;10.112;2023-07-29T02:05:11;99638.06;;;18.54
69857;BMP280;57147;53.582;10.112;2023-07-29T02:10:14;99041.88;;;18.10
69857;BMP280;57147;53.582;10.112;2023-07-29T02:15:14;98678.00;;;17.84
69857;BMP280;57147;53.582;10.112;2023-07-29T02:20:15;98684.22;;;17.74
69857;BMP280;57147;53.582;10.112;2023-07-29T02:25:18;98739.41;;;17.82
69857;BMP280;57147;53.582;10.112;2023-07-29T02:30:20;98917.31;;;17.58
69857;BMP280;57147;53.582;10.112;2023-07-29T02:35:21;99089.84;;;17.90
69857;BMP280;57147;53.582;10.112;2023-07-29T02:40:24;99265.47;;;17.89
69857;BMP280;57147;53.582;10.112;2023-07-29T02:45:24;99360.16;;;17.75
69857;BMP280;57147;53.582;10.112;2023-07-29T02:50:25;99441.13;;;17.81
69857;BMP280;57147;53.582;10.112;2023-07-29T02:55:29;99512.41;;;17.78
69857;BMP280;57147;53.582;10.112;2023-07-29T03:00:31;99520.72;;;17.63
69857;BMP280;57147;53.582;10.112;2023-07-29T03:05:32;99619.69;;;17.68
69857;BMP280;57147;53.582;10.112;2023-07-29T03:10:37;99667.28;;;17.71
69857;BMP280;57147;53.582;10.112;2023-07-29T03:15:37;99702.22;;;17.78
69857;BMP280;57147;53.582;10.112;2023-07-29T03:20:38;99711.59;;;17.58
69857;BMP280;57147;53.582;10.112;2023-07-29T03:25:41;99701.41;;;17.40
69857;BMP280;57147;53.582;10.112;2023-07-29T03:30:42;99767.72;;;17.70
69857;BMP280;57147;53.582;10.112;2023-07-29T03:35:42;99772.28;;;17.66
69857;BMP280;57147;53.582;10.112;2023-07-29T03:40:52;99804.53;;;17.69
69857;BMP280;57147;53.582;10.112;2023-07-29T03:45:53;99825.22;;;17.69
69857;BMP280;57147;53.582;10.112;2023-07-29T03:50:55;99824.41;;;17.65
69857;BMP280;57147;53.582;10.112;2023-07-29T03:55:59;99845.22;;;17.71
69857;BMP280;57147;53.582;10.112;2023-07-29T04:01:02;99871.75;;;17.76
69857;BMP280;57147;53.582;10.112;2023-07-29T04:06:03;99883.47;;;17.65
69857;BMP280;57147;53.582;10.112;2023-07-29T04:11:09;99925.97;;;17.89
69857;BMP280;57147;53.582;10.112;2023-07-29T04:16:10;99966.72;;;17.94
69857;BMP280;57147;53.582;10.112;2023-07-29T04:21:13;99995.19;;;17.99
69857;BMP280;57147;53.582;10.112;2023-07-29T04:26:19;100026.91;;;18.16
69857;BMP280;57147;53.582;10.112;2023-07-29T04:31:20;100051.19;;;18.23
69857;BMP280;57147;53.582;10.112;2023-07-29T04:36:23;100076.19;;;18.27
69857;BMP280;57147;53.582;10.112;2023-07-29T04:41:31;100078.50;;;18.25
69857;BMP280;57147;53.582;10.112;2023-07-29T04:46:37;100067.00;;;18.28
69857;BMP280;57147;53.582;10.112;2023-07-29T04:51:39;100063.91;;;18.26
69857;BMP280;57147;53.582;10.112;2023-07-29T04:56:46;100044.06;;;18.34
69857;BMP280;57147;53.582;10.112;2023-07-29T05:02:00;100023.53;;;18.49
69857;BMP280;57147;53.582;10.112;2023-07-29T05:07:05;99979.03;;;18.52
69857;BMP280;57147;53.582;10.112;2023-07-29T05:12:12;99918.97;;;18.40
69857;BMP280;57147;53.582;10.112;2023-07-29T05:17:16;99875.00;;;18.56
69857;BMP280;57147;53.582;10.112;2023-07-29T05:22:17;99767.59;;;18.70
69857;BMP280;57147;53.582;10.112;2023-07-29T05:27:21;99532.53;;;18.67
69857;BMP280;57147;53.582;10.112;2023-07-29T05:32:25;99218.03;;;18.67
69857;BMP280;57147;53.582;10.112;2023-07-29T05:37:29;99151.16;;;18.80
69857;BMP280;57147;53.582;10.112;2023-07-29T05:42:37;99326.31;;;18.85
69857;BMP280;57147;53.582;10.112;2023-07-29T05:47:42;99370.13;;;19.00
69857;BMP280;57147;53.582;10.112;2023-07-29T05:52:44;99382.78;;;19.17
69857;BMP280;57147;53.582;10.112;2023-07-29T05:57:55;99451.63;;;19.25
69857;BMP280;57147;53.582;10.112;2023-07-29T06:02:55;99553.47;;;19.13
69857;BMP280;57147;53.582;10.112;2023-07-29T06:07:55;99550.00;;;19.16
69857;BMP280;57147;53.582;10.112;2023-07-29T06:12:59;99513.13;;;19.23
69857;BMP280;57147;53.582;10.112;2023-07-29T06:17:59;99593.06;;;19.23
69857;BMP280;57147;53.582;10.112;2023-07-29T06:23:00;99500.84;;;19.36
69857;BMP280;57147;53.582;10.112;2023-07-29T06:28:04;99548.91;;;19.49
69857;BMP280;57147;53.582;10.112;2023-07-29T06:33:04;99680.00;;;19.37
69857;BMP280;57147;53.582;10.112;2023-07-29T06:38:05;99593.53;;;19.50
69857;BMP280;57147;53.582;10.112;2023-07-29T06:43:08;99602.34;;;19.61
69857;BMP280;57147;53.582;10.112;2023-07-29T06:48:09;99762.41;;;19.67
69857;BMP280;57147;53.582;10.112;2023-07-29T06:53:09;99818.47;;;19.51
69857;BMP280;57147;53.582;10.112;2023-07-29T06:58:13;99849.41;;;19.81
69857;BMP280;57147;53.582;10.112;2023-07-29T07:03:13;99928.34;;;19.96
69857;BMP280;57147;53.582;10.112;2023-07-29T07:08:14;99885.63;;;19.91
69857;BMP280;57147;53.582;10.112;2023-07-29T07:13:17;99872.53;;;19.97
69857;BMP280;57147;53.582;10.112;2023-07-29T07:18:17;100036.41;;;19.84
69857;BMP280;57147;53.582;10.112;2023-07-29T07:23:18;99933.69;;;19.82
69857;BMP280;57147;53.582;10.112;2023-07-29T07:28:21;99874.78;;;19.77
69857;BMP280;57147;53.582;10.112;2023-07-29T07:33:22;99869.41;;;19.84
69857;BMP280;57147;53.582;10.112;2023-07-29T07:38:22;99920.09;;;19.68
69857;BMP280;57147;53.582;10.112;2023-07-29T07:43:26;99822.31;;;19.46
69857;BMP280;57147;53.582;10.112;2023-07-29T07:48:26;99906.13;;;19.45
69857;BMP280;57147;53.582;10.112;2023-07-29T07:53:27;99879.47;;;19.94
69857;BMP280;57147;53.582;10.112;2023-07-29T07:58:30;99882.94;;;19.91
69857;BMP280;57147;53.582;10.112;2023-07-29T08:03:30;99888.00;;;20.07
69857;BMP280;57147;53.582;10.112;2023-07-29T08:08:31;99916.91;;;20.20
69857;BMP280;57147;53.582;10.112;2023-07-29T08:13:34;100040.06;;;20.09
69857;BMP280;57147;53.582;10.112;2023-07-29T08:18:35;99922.59;;;20.01
69857;BMP280;57147;53.582;10.112;2023-07-29T08:23:36;99924.28;;;20.30
69857;BMP280;57147;53.582;10.112;2023-07-29T08:28:39;99857.22;;;19.32
69857;BMP280;57147;53.582;10.112;2023-07-29T08:33:40;99971.66;;;20.31
69857;BMP280;57147;53.582;10.112;2023-07-29T08:38:40;100080.69;;;20.45
69857;BMP280;57147;53.582;10.112;2023-07-29T08:43:50;100118.41;;;20.38
69857;BMP280;57147;53.582;10.112;2023-07-29T08:48:52;100151.09;;;20.32
69857;BMP280;57147;53.582;10.112;2023-07-29T08:53:53;100146.78;;;20.21
69857;BMP280;57147;53.582;10.112;2023-07-29T08:58:57;100140.78;;;20.49
69857;BMP280;57147;53.582;10.112;2023-07-29T09:03:59;100182.22;;;20.19
69857;BMP280;57147;53.582;10.112;2023-07-29T09:09:00;100137.72;;;20.40
69857;BMP280;57147;53.582;10.112;2023-07-29T09:14:04;100022.66;;;19.96
69857;BMP280;57147;53.582;10.112;2023-07-29T09:19:04;100139.03;;;20.12
69857;BMP280;57147;53.582;10.112;2023-07-29T09:24:05;100261.78;;;20.50
69857;BMP280;57147;53.582;10.112;2023-07-29T09:29:08;100210.25;;;20.62
69857;BMP280;57147;53.582;10.112;2023-07-29T09:34:09;100146.28;;;20.63
69857;BMP280;57147;53.582;10.112;2023-07-29T09:39:11;100265.19;;;20.95
69857;BMP280;57147;53.582;10.112;2023-07-29T09:44:14;100241.22;;;20.86
69857;BMP280;57147;53.582;10.112;2023-07-29T09:49:15;100290.47;;;20.76
69857;BMP280;57147;53.582;10.112;2023-07-29T09:54:16;100217.75;;;20.90
69857;BMP280;57147;53.582;10.112;2023-07-29T09:59:23;100262.06;;;20.89
69857;BMP280;57147;53.582;10.112;2023-07-29T10:04:23;100272.94;;;21.03
69857;BMP280;57147;53.582;10.112;2023-07-29T10:09:28;100287.59;;;21.02
69857;BMP280;57147;53.582;10.112;2023-07-29T10:14:31;100347.47;;;21.18
69857;BMP280;57147;53.582;10.112;2023-07-29T10:19:34;100301.25;;;21.38
69857;BMP280;57147;53.582;10.112;2023-07-29T10:24:36;100342.69;;;21.63
69857;BMP280;57147;53.582;10.112;2023-07-29T10:29:41;100348.09;;;21.70
69857;BMP280;57147;53.582;10.112;2023-07-29T10:34:44;100377.94;;;21.98
69857;BMP280;57147;53.582;10.112;2023-07-29T10:39:52;100363.22;;;21.81
69857;BMP280;57147;53.582;10.112;2023-07-29T10:44:56;100363.88;;;21.61
69857;BMP280;57147;53.582;10.112;2023-07-29T10:49:58;100356.63;;;21.82
69857;BMP280;57147;53.582;10.112;2023-07-29T10:54:59;100324.28;;;22.11
69857;BMP280;57147;53.582;10.112;2023-07-29T11:00:04;100353.56;;;21.84
69857;BMP280;57147;53.582;10.112;2023-07-29T11:05:06;100320.28;;;21.66
69857;BMP280;57147;53.582;10.112;2023-07-29T11:10:07;100315.69;;;21.77
69857;BMP280;57147;53.582;10.112;2023-07-29T11:15:18;100316.50;;;21.81
69857;BMP280;57147;53.582;10.112;2023-07-29T11:20:20;100362.91;;;22.11
69857;BMP280;57147;53.582;10.112;2023-07-29T11:25:23;100359.81;;;22.16
69857;BMP280;57147;53.582;10.112;2023-07-29T11:30:26;100303.34;;;21.76
69857;BMP280;57147;53.582;10.112;2023-07-29T11:35:27;100354.34;;;21.88
69857;BMP280;57147;53.582;10.112;2023-07-29T11:40:27;100335.78;;;21.83
69857;BMP280;57147;53.582;10.112;2023-07-29T11:45:31;100375.19;;;21.84
69857;BMP280;57147;53.582;10.112;2023-07-29T11:50:32;100334.91;;;21.51
69857;BMP280;57147;53.582;10.112;2023-07-29T11:55:33;100366.69;;;21.82
69857;BMP280;57147;53.582;10.112;2023-07-29T12:00:37;100362.13;;;22.07
69857;BMP280;57147;53.582;10.112;2023-07-29T12:05:38;100338.94;;;22.24
69857;BMP280;57147;53.582;10.112;2023-07-29T12:10:39;100349.06;;;22.62
69857;BMP280;57147;53.582;10.112;2023-07-29T12:15:42;100357.53;;;22.82
69857;BMP280;57147;53.582;10.112;2023-07-29T12:20:43;100341.72;;;22.73
69857;BMP280;57147;53.582;10.112;2023-07-29T12:25:44;100349.78;;;22.56
69857;BMP280;57147;53.582;10.112;2023-07-29T12:30:47;100354.81;;;22.82
69857;BMP280;57147;53.582;10.112;2023-07-29T12:35:50;100349.78;;;22.98
69857;BMP280;57147;53.582;10.112;2023-07-29T12:40:51;100300.22;;;23.08
69857;BMP280;57147;53.582;10.112;2023-07-29T12:45:57;100322.63;;;23.19
69857;BMP280;57147;53.582;10.112;2023-07-29T12:50:57;100311.03;;;23.19
69857;BMP280;57147;53.582;10.112;2023-07-29T12:55:58;100341.88;;;23.50
69857;BMP280;57147;53.582;10.112;2023-07-29T13:01:01;100340.31;;;23.49
69857;BMP280;57147;53.582;10.112;2023-07-29T13:06:02;100339.03;;;23.81
69857;BMP280;57147;53.582;10.112;2023-07-29T13:11:03;100347.03;;;23.99
69857;BMP280;57147;53.582;10.112;2023-07-29T13:16:06;100347.78;;;23.96
69857;BMP280;57147;53.582;10.112;2023-07-29T13:21:07;100368.91;;;23.67
69857;BMP280;57147;53.582;10.112;2023-07-29T13:26:07;100363.91;;;23.59
69857;BMP280;57147;53.582;10.112;2023-07-29T13:31:11;100372.44;;;23.61
69857;BMP280;57147;53.582;10.112;2023-07-29T13:36:11;100370.44;;;23.72
69857;BMP280;57147;53.582;10.112;2023-07-29T13:41:12;100368.88;;;23.74
69857;BMP280;57147;53.582;10.112;2023-07-29T13:46:15;100361.81;;;23.87
69857;BMP280;57147;53.582;10.112;2023-07-29T13:51:15;100358.09;;;24.22
69857;BMP280;57147;53.582;10.112;2023-07-29T13:56:16;100370.38;;;24.37
69857;BMP280;57147;53.582;10.112;2023-07-29T14:01:19;100372.31;;;24.40
69857;BMP280;57147;53.582;10.112;2023-07-29T14:06:20;100365.69;;;24.45
69857;BMP280;57147;53.582;10.112;2023-07-29T14:11:20;100380.78;;;24.50
69857;BMP280;57147;53.582;10.112;2023-07-29T14:16:24;100369.31;;;24.24
69857;BMP280;57147;53.582;10.112;2023-07-29T14:21:24;100368.47;;;24.34
69857;BMP280;57147;53.582;10.112;2023-07-29T14:26:25;100377.44;;;24.76
69857;BMP280;57147;53.582;10.112;2023-07-29T14:31:28;100377.59;;;24.99
69857;BMP280;57147;53.582;10.112;2023-07-29T14:36:29;100385.69;;;25.36
69857;BMP280;57147;53.582;10.112;2023-07-29T14:41:30;100335.66;;;25.00
69857;BMP280;57147;53.582;10.112;2023-07-29T14:46:33;100386.72;;;24.75
69857;BMP280;57147;53.582;10.112;2023-07-29T14:51:34;100338.72;;;24.68
69857;BMP280;57147;53.582;10.112;2023-07-29T14:56:34;100373.81;;;25.23
69857;BMP280;57147;53.582;10.112;2023-07-29T15:01:38;100386.06;;;25.38
69857;BMP280;57147;53.582;10.112;2023-07-29T15:06:38;100393.22;;;25.25
69857;BMP280;57147;53.582;10.112;2023-07-29T15:11:39;100354.72;;;24.93
69857;BMP280;57147;53.582;10.112;2023-07-29T15:16:42;100371.97;;;24.79
69857;BMP280;57147;53.582;10.112;2023-07-29T15:21:43;100381.22;;;24.85
69857;BMP280;57147;53.582;10.112;2023-07-29T15:26:43;100336.84;;;24.99
69857;BMP280;57147;53.582;10.112;2023-07-29T15:31:46;100355.97;;;25.22
69857;BMP280;57147;53.582;10.112;2023-07-29T15:36:48;100356.34;;;25.24
69857;BMP280;57147;53.582;10.112;2023-07-29T15:41:48;100383.47;;;25.58
69857;BMP280;57147;53.582;10.112;2023-07-29T15:46:51;100410.53;;;25.69
69857;BMP280;57147;53.582;10.112;2023-07-29T15:51:52;100412.25;;;25.86
69857;BMP280;57147;53.582;10.112;2023-07-29T15:56:53;100400.25;;;25.19
69857;BMP280;57147;53.582;10.112;2023-07-29T16:01:56;100395.09;;;24.94
69857;BMP280;57147;53.582;10.112;2023-07-29T16:06:57;100384.72;;;24.38
69857;BMP280;57147;53.582;10.112;2023-07-29T16:11:57;100398.81;;;24.22
69857;BMP280;57147;53.582;10.112;2023-07-29T16:17:01;100416.56;;;23.61
69857;BMP280;57147;53.582;10.112;2023-07-29T16:22:01;100428.63;;;23.35
69857;BMP280;57147;53.582;10.112;2023-07-29T16:27:02;100469.66;;;23.02
69857;BMP280;57147;53.582;10.112;2023-07-29T16:32:06;100499.59;;;22.05
69857;BMP280;57147;53.582;10.112;2023-07-29T16:37:22;100480.91;;;20.77
69857;BMP280;57147;53.582;10.112;2023-07-29T16:42:51;100323.34;;;20.04
69857;BMP280;57147;53.582;10.112;2023-07-29T16:47:55;99972.47;;;18.82
69857;BMP280;57147;53.582;10.112;2023-07-29T16:52:56;99970.53;;;18.50
69857;BMP280;57147;53.582;10.112;2023-07-29T16:57:58;99846.56;;;18.18
69857;BMP280;57147;53.582;10.112;2023-07-29T17:03:01;99673.16;;;18.27
69857;BMP280;57147;53.582;10.112;2023-07-29T17:08:02;99847.88;;;18.68
69857;BMP280;57147;53.582;10.112;2023-07-29T17:13:03;99992.44;;;18.85
69857;BMP280;57147;53.582;10.112;2023-07-29T17:18:06;100108.81;;;19.12
69857;BMP280;57147;53.582;10.112;2023-07-29T17:23:07;100152.00;;;19.22
69857;BMP280;57147;53.582;10.112;2023-07-29T17:28:07;100161.94;;;19.18
69857;BMP280;57147;53.582;10.112;2023-07-29T17:33:13;100222.28;;;19.17
69857;BMP280;57147;53.582;10.112;2023-07-29T17:38:13;100196.56;;;19.50
69857;BMP280;57147;53.582;10.112;2023-07-29T17:43:14;100285.94;;;19.32
69857;BMP280;57147;53.582;10.112;2023-07-29T17:48:17;100161.03;;;19.07
69857;BMP280;57147;53.582;10.112;2023-07-29T17:53:18;100294.94;;;19.44
69857;BMP280;57147;53.582;10.112;2023-07-29T17:58:18;100247.69;;;19.46
69857;BMP280;57147;53.582;10.112;2023-07-29T18:03:21;100325.13;;;19.60
69857;BMP280;57147;53.582;10.112;2023-07-29T18:08:22;100286.84;;;19.44
69857;BMP280;57147;53.582;10.112;2023-07-29T18:13:23;100210.56;;;19.66
69857;BMP280;57147;53.582;10.112;2023-07-29T18:18:26;100133.44;;;19.47
69857;BMP280;57147;53.582;10.112;2023-07-29T18:23:27;99799.56;;;19.33
69857;BMP280;57147;53.582;10.112;2023-07-29T18:28:28;99951.94;;;19.04
69857;BMP280;57147;53.582;10.112;2023-07-29T18:33:31;99866.31;;;18.73
69857;BMP280;57147;53.582;10.112;2023-07-29T18:38:31;99797.41;;;19.02
69857;BMP280;57147;53.582;10.112;2023-07-29T18:43:36;100098.91;;;19.19
69857;BMP280;57147;53.582;10.112;2023-07-29T18:48:39;100000.31;;;19.01
69857;BMP280;57147;53.582;10.112;2023-07-29T18:53:40;100118.31;;;19.35
69857;BMP280;57147;53.582;10.112;2023-07-29T18:58:40;100127.38;;;19.20
69857;BMP280;57147;53.582;10.112;2023-07-29T19:03:44;100036.47;;;19.03
69857;BMP280;57147;53.582;10.112;2023-07-29T19:08:44;100069.06;;;19.31
69857;BMP280;57147;53.582;10.112;2023-07-29T19:13:45;100090.09;;;19.22
69857;BMP280;57147;53.582;10.112;2023-07-29T19:18:49;100134.97;;;19.11
69857;BMP280;57147;53.582;10.112;2023-07-29T19:23:49;100063.69;;;18.65
69857;BMP280;57147;53.582;10.112;2023-07-29T19:28:50;100084.22;;;19.13
69857;BMP280;57147;53.582;10.112;2023-07-29T19:33:53;100165.56;;;19.00
69857;BMP280;57147;53.582;10.112;2023-07-29T19:38:54;100161.78;;;19.04
69857;BMP280;57147;53.582;10.112;2023-07-29T19:43:54;100090.38;;;19.14
69857;BMP280;57147;53.582;10.112;2023-07-29T19:48:57;100175.53;;;18.99
69857;BMP280;57147;53.582;10.112;2023-07-29T19:53:58;100212.81;;;19.01
69857;BMP280;57147;53.582;10.112;2023-07-29T19:58:58;100188.56;;;18.97
69857;BMP280;57147;53.582;10.112;2023-07-29T20:04:02;100150.13;;;18.97
69857;BMP280;57147;53.582;10.112;2023-07-29T20:09:03;100194.59;;;18.87
69857;BMP280;57147;53.582;10.112;2023-07-29T20:14:03;100200.38;;;18.89
69857;BMP280;57147;53.582;10.112;2023-07-29T20:19:06;100188.03;;;18.58
69857;BMP280;57147;53.582;10.112;2023-07-29T20:24:07;100210.47;;;18.69
69857;BMP280;57147;53.582;10.112;2023-07-29T20:29:08;100195.06;;;18.66
69857;BMP280;57147;53.582;10.112;2023-07-29T20:34:11;100122.06;;;18.15
69857;BMP280;57147;53.582;10.112;2023-07-29T20:39:12;100186.22;;;18.39
69857;BMP280;57147;53.582;10.112;2023-07-29T20:44:12;100113.91;;;18.31
69857;BMP280;57147;53.582;10.112;2023-07-29T20:49:15;100133.78;;;18.26
69857;BMP280;57147;53.582;10.112;2023-07-29T20:54:16;100089.09;;;18.18
69857;BMP280;57147;53.582;10.112;2023-07-29T20:59:16;100106.97;;;18.30
69857;BMP280;57147;53.582;10.112;2023-07-29T21:04:20;100147.63;;;18.28
69857;BMP280;57147;53.582;10.112;2023-07-29T21:09:20;100119.69;;;18.10
69857;BMP280;57147;53.582;10.112;2023-07-29T21:14:21;100143.47;;;18.08
69857;BMP280;57147;53.582;10.112;2023-07-29T21:19:24;100112.19;;;17.74
69857;BMP280;57147;53.582;10.112;2023-07-29T21:24:25;100117.19;;;17.98
69857;BMP280;57147;53.582;10.112;2023-07-29T21:29:26;100110.78;;;18.06
69857;BMP280;57147;53.582;10.112;2023-07-29T21:34:31;100185.22;;;18.06
69857;BMP280;57147;53.582;10.112;2023-07-29T21:39:32;100152.88;;;17.98
69857;BMP280;57147;53.582;10.112;2023-07-29T21:44:32;100141.09;;;17.84
69857;BMP280;57147;53.582;10.112;2023-07-29T21:49:36;100130.06;;;17.89
69857;BMP280;57147;53.582;10.112;2023-07-29T21:54:36;100170.59;;;17.80
69857;BMP280;57147;53.582;10.112;2023-07-29T21:59:37;100122.19;;;17.35
69857;BMP280;57147;53.582;10.112;2023-07-29T22:04:40;100124.69;;;17.66
69857;BMP280;57147;53.582;10.112;2023-07-29T22:09:41;100089.34;;;17.03
69857;BMP280;57147;53.582;10.112;2023-07-29T22:14:42;100096.25;;;17.04
69857;BMP280;57147;53.582;10.112;2023-07-29T22:19:46;100184.03;;;17.42
69857;BMP280;57147;53.582;10.112;2023-07-29T22:24:47;100181.91;;;17.32
69857;BMP280;57147;53.582;10.112;2023-07-29T22:29:47;100222.41;;;17.62
69857;BMP280;57147;53.582;10.112;2023-07-29T22:34:50;100169.53;;;17.27
69857;BMP280;57147;53.582;10.112;2023-07-29T22:39:51;100130.69;;;17.02
69857;BMP280;57147;53.582;10.112;2023-07-29T22:44:52;100187.94;;;17.44
69857;BMP280;57147;53.582;10.112;2023-07-29T22:49:55;100189.19;;;17.50
69857;BMP280;57147;53.582;10.112;2023-07-29T22:54:55;100134.50;;;17.01
69857;BMP280;57147;53.582;10.112;2023-07-29T22:59:56;100192.94;;;17.46
69857;BMP280;57147;53.582;10.112;2023-07-29T23:04:59;100140.66;;;17.21
69857;BMP280;57147;53.582;10.112;2023-07-29T23:10:00;100141.59;;;17.28
69857;BMP280;57147;53.582;10.112;2023-07-29T23:15:01;100113.50;;;17.22
69857;BMP280;57147;53.582;10.112;2023-07-29T23:20:05;100066.63;;;17.16
69857;BMP280;57147;53.582;10.112;2023-07-29T23:25:07;100134.53;;;17.39
69857;BMP280;57147;53.582;10.112;2023-07-29T23:30:08;100116.25;;;17.45
69857;BMP280;57147;53.582;10.112;2023-07-29T23:35:11;100119.50;;;17.54
69857;BMP280;57147;53.582;10.112;2023-07-29T23:40:12;100137.91;;;17.55
69857;BMP280;57147;53.582;10.112;2023-07-29T23:45:13;100097.94;;;17.50
69857;BMP280;57147;53.582;10.112;2023-07-29T23:50:16;100089.47;;;17.48
69857;BMP280;57147;53.582;10.112;2023-07-29T23:55:17;100009.59;;;17.42
